createdAt,value
2023-04-17T00:01:55.404Z,49.62
2023-04-17T00:04:22.082Z,49.92
2023-04-17T00:06:48.678Z,49.98
2023-04-17T00:09:15.181Z,49.62
2023-04-17T00:11:41.584Z,49.70
2023-04-17T00:14:08.841Z,49.79
2023-04-17T00:16:35.369Z,49.87
2023-04-17T00:19:01.806Z,49.74
2023-04-17T00:21:30.164Z,49.33
2023-04-17T00:23:58.490Z,49.66
2023-04-17T00:26:26.759Z,49.64
2023-04-17T00:28:55.932Z,49.85
2023-04-17T00:31:25.121Z,49.55
2023-04-17T00:33:51.501Z,49.50
2023-04-17T00:36:20.671Z,49.89
2023-04-17T00:38:47.137Z,49.64
2023-04-17T00:41:13.604Z,49.84
2023-04-17T00:43:42.828Z,49.60
2023-04-17T00:46:12.089Z,49.76
2023-04-17T00:48:40.353Z,49.73
2023-04-17T00:51:06.767Z,49.53
2023-04-17T00:53:35.051Z,49.59
2023-04-17T00:56:04.248Z,49.56
2023-04-17T00:58:30.608Z,49.81
2023-04-17T01:00:57.024Z,49.75
2023-04-17T01:03:25.457Z,49.65
2023-04-17T01:05:54.756Z,49.67
2023-04-17T01:08:21.160Z,49.52
2023-04-17T01:10:50.315Z,49.44
2023-04-17T01:13:16.832Z,49.67
2023-04-17T01:15:43.258Z,49.40
2023-04-17T01:18:09.726Z,49.86
2023-04-17T01:20:36.162Z,49.84
2023-04-17T01:23:02.564Z,49.79
2023-04-17T01:25:29.042Z,49.90
2023-04-17T01:27:55.407Z,49.51
2023-04-17T01:30:21.817Z,49.60
2023-04-17T01:32:51.103Z,49.46
2023-04-17T01:35:20.331Z,49.44
2023-04-17T01:37:46.746Z,49.42
2023-04-17T01:40:13.168Z,49.79
2023-04-17T01:42:39.578Z,49.53
2023-04-17T01:45:06.816Z,49.51
2023-04-17T01:47:33.271Z,49.62
2023-04-17T01:49:59.729Z,49.71
2023-04-17T01:52:26.134Z,49.75
2023-04-17T01:54:53.427Z,49.42
2023-04-17T01:57:19.872Z,49.39
2023-04-17T01:59:46.311Z,49.60
2023-04-17T02:02:12.780Z,49.48
2023-04-17T02:04:39.357Z,49.52
2023-04-17T02:07:05.870Z,49.45
2023-04-17T02:09:35.041Z,49.73
2023-04-17T02:12:01.409Z,49.57
2023-04-17T02:14:27.792Z,49.67
2023-04-17T02:16:56.042Z,49.58
2023-04-17T02:19:22.414Z,49.42
2023-04-17T02:21:48.811Z,49.38
2023-04-17T02:24:15.277Z,49.38
2023-04-17T02:26:44.466Z,49.38
2023-04-17T02:29:11.194Z,49.53
2023-04-17T02:31:37.722Z,49.64
2023-04-17T02:34:04.205Z,49.57
2023-04-17T02:36:30.631Z,49.57
2023-04-17T02:38:59.785Z,49.35
2023-04-17T02:41:26.248Z,49.48
2023-04-17T02:43:55.393Z,49.33
2023-04-17T02:46:21.925Z,49.29
2023-04-17T02:48:51.171Z,49.42
2023-04-17T02:51:20.320Z,49.59
2023-04-17T02:53:48.555Z,49.40
2023-04-17T02:56:14.997Z,49.58
2023-04-17T02:58:41.401Z,49.43
2023-04-17T03:01:07.840Z,49.63
2023-04-17T03:03:34.440Z,49.30
2023-04-17T03:06:01.839Z,49.31
2023-04-17T03:08:30.134Z,49.45
2023-04-17T03:10:58.241Z,49.37
2023-04-17T03:13:27.402Z,49.33
2023-04-17T03:15:53.837Z,49.43
2023-04-17T03:18:20.232Z,49.36
2023-04-17T03:20:47.524Z,49.31
2023-04-17T03:23:13.924Z,49.54
2023-04-17T03:25:40.543Z,49.28
2023-04-17T03:28:06.911Z,49.57
2023-04-17T03:30:34.139Z,49.47
2023-04-17T03:33:00.605Z,49.25
2023-04-17T03:35:27.865Z,49.28
2023-04-17T03:37:57.020Z,49.40
2023-04-17T03:40:23.403Z,49.45
2023-04-17T03:42:50.632Z,49.18
2023-04-17T03:45:17.871Z,49.46
2023-04-17T03:47:47.106Z,49.52
2023-04-17T03:50:16.359Z,49.43
2023-04-17T03:52:43.605Z,49.17
2023-04-17T03:55:09.964Z,49.29
2023-04-17T03:57:36.356Z,49.45
2023-04-17T04:00:03.622Z,49.37
2023-04-17T04:02:32.943Z,49.16
2023-04-17T04:05:00.328Z,49.41
2023-04-17T04:07:26.822Z,49.12
2023-04-17T04:09:54.059Z,49.44
2023-04-17T04:12:20.410Z,49.20
2023-04-17T04:14:46.741Z,49.07
2023-04-17T04:17:13.132Z,49.16
2023-04-17T04:19:42.262Z,49.44
2023-04-17T04:22:09.513Z,49.14
2023-04-17T04:24:36.727Z,49.11
2023-04-17T04:27:04.122Z,49.18
2023-04-17T04:29:30.554Z,49.31
2023-04-17T04:31:59.746Z,49.34
2023-04-17T04:34:27.009Z,49.19
2023-04-17T04:36:53.419Z,49.20
2023-04-17T04:39:19.815Z,49.09
2023-04-17T04:41:47.064Z,49.17
2023-04-17T04:44:13.462Z,49.29
2023-04-17T04:46:39.883Z,49.28
2023-04-17T04:49:06.306Z,49.12
2023-04-17T04:51:32.720Z,48.99
2023-04-17T04:54:01.894Z,49.10
2023-04-17T04:56:29.071Z,48.95
2023-04-17T04:58:59.591Z,49.21
2023-04-17T05:01:26.090Z,48.95
2023-04-17T05:03:52.804Z,48.97
2023-04-17T05:06:21.204Z,49.15
2023-04-17T05:08:47.616Z,49.17
2023-04-17T05:11:14.000Z,48.97
2023-04-17T05:13:40.519Z,48.88
2023-04-17T05:16:09.738Z,49.06
2023-04-17T05:18:38.914Z,48.89
2023-04-17T05:21:05.345Z,49.29
2023-04-17T05:23:31.778Z,48.97
2023-04-17T05:26:00.307Z,49.20
2023-04-17T05:28:26.694Z,49.16
2023-04-17T05:30:53.061Z,49.25
2023-04-17T05:33:20.289Z,48.99
2023-04-17T05:35:49.452Z,48.94
2023-04-17T05:38:15.911Z,49.10
2023-04-17T05:40:42.349Z,49.17
2023-04-17T05:43:08.786Z,49.06
2023-04-17T05:45:37.078Z,49.19
2023-04-17T05:48:03.537Z,49.00
2023-04-17T05:50:29.953Z,48.96
2023-04-17T05:52:56.372Z,48.90
2023-04-17T05:55:23.659Z,48.84
2023-04-17T05:57:50.004Z,48.84
2023-04-17T06:00:16.381Z,49.26
2023-04-17T06:02:44.755Z,48.86
2023-04-17T06:05:14.046Z,49.14
2023-04-17T06:07:40.545Z,49.00
2023-04-17T06:10:08.840Z,49.21
2023-04-17T06:12:37.130Z,48.88
2023-04-17T06:15:03.528Z,49.14
2023-04-17T06:17:31.937Z,49.07
2023-04-17T06:19:58.392Z,49.04
2023-04-17T06:22:24.794Z,48.95
2023-04-17T06:24:54.021Z,49.07
2023-04-17T06:27:21.260Z,49.09
2023-04-17T06:29:47.659Z,48.87
2023-04-17T06:32:14.017Z,49.06
2023-04-17T06:34:58.232Z,48.95
2023-04-17T06:37:25.355Z,48.83
2023-04-17T06:39:51.810Z,48.80
2023-04-17T06:42:18.248Z,48.64
2023-04-17T06:44:44.710Z,48.83
2023-04-17T06:47:11.972Z,49.21
2023-04-17T06:49:38.407Z,48.77
2023-04-17T06:52:04.789Z,49.06
2023-04-17T06:54:31.219Z,48.81
2023-04-17T06:56:57.682Z,48.94
2023-04-17T06:59:24.132Z,49.18
2023-04-17T07:01:50.770Z,48.78
2023-04-17T07:04:17.560Z,48.86
2023-04-17T07:06:44.103Z,49.02
2023-04-17T07:09:10.615Z,48.89
2023-04-17T07:11:40.432Z,48.60
2023-04-17T07:14:06.975Z,49.02
2023-04-17T07:16:35.293Z,48.81
2023-04-17T07:19:01.790Z,49.03
2023-04-17T07:21:29.011Z,48.96
2023-04-17T07:23:55.516Z,48.76
2023-04-17T07:26:22.787Z,48.75
2023-04-17T07:28:50.040Z,49.03
2023-04-17T07:31:18.395Z,48.85
2023-04-17T07:33:45.674Z,49.00
2023-04-17T07:36:12.885Z,48.90
2023-04-17T07:38:41.009Z,48.87
2023-04-17T07:41:10.291Z,48.92
2023-04-17T07:43:37.593Z,48.59
2023-04-17T07:46:05.896Z,48.72
2023-04-17T07:48:33.195Z,48.72
2023-04-17T07:51:00.431Z,48.76
2023-04-17T07:53:26.897Z,48.90
2023-04-17T07:55:53.407Z,48.66
2023-04-17T07:58:20.640Z,48.76
2023-04-17T08:00:47.141Z,48.67
2023-04-17T08:03:13.697Z,48.64
2023-04-17T08:05:40.265Z,48.51
2023-04-17T08:08:07.527Z,48.92
2023-04-17T08:10:33.922Z,48.72
2023-04-17T08:13:01.249Z,48.89
2023-04-17T08:15:28.488Z,48.66
2023-04-17T08:17:56.811Z,49.12
2023-04-17T08:20:24.189Z,48.98
2023-04-17T08:22:50.706Z,49.02
2023-04-17T08:25:17.193Z,48.70
2023-04-17T08:27:43.707Z,48.79
2023-04-17T08:30:12.596Z,48.78
2023-04-17T08:32:39.876Z,48.95
2023-04-17T08:35:07.120Z,49.39
2023-04-17T08:37:34.405Z,49.49
2023-04-17T08:40:01.692Z,49.12
2023-04-17T08:42:28.956Z,49.30
2023-04-17T08:44:56.293Z,49.27
2023-04-17T08:47:22.757Z,49.09
2023-04-17T08:49:50.126Z,49.37
2023-04-17T08:52:17.436Z,49.25
2023-04-17T08:54:43.892Z,48.95
2023-04-17T08:57:11.138Z,49.48
2023-04-17T08:59:37.545Z,49.49
2023-04-17T09:02:05.113Z,49.56
2023-04-17T09:04:32.724Z,49.43
2023-04-17T09:07:00.174Z,48.77
2023-04-17T09:09:26.617Z,49.02
2023-04-17T09:11:53.880Z,48.42
2023-04-17T09:14:21.203Z,48.94
2023-04-17T09:16:47.614Z,49.17
2023-04-17T09:19:14.920Z,48.86
2023-04-17T09:21:42.272Z,48.86
2023-04-17T09:24:09.622Z,48.49
2023-04-17T09:26:36.109Z,48.82
2023-04-17T09:29:03.446Z,49.07
2023-04-17T09:31:29.896Z,48.30
2023-04-17T09:33:56.371Z,48.70
2023-04-17T09:36:23.626Z,48.55
2023-04-17T09:38:51.010Z,49.04
2023-04-17T09:41:18.399Z,48.75
2023-04-17T09:43:45.723Z,49.12
2023-04-17T09:46:12.194Z,49.37
2023-04-17T09:48:38.658Z,49.16
2023-04-17T09:51:06.062Z,49.72
2023-04-17T09:53:32.487Z,50.02
2023-04-17T09:55:59.897Z,49.30
2023-04-17T09:58:27.250Z,48.58
2023-04-17T10:00:54.542Z,48.48
2023-04-17T10:03:21.244Z,49.04
2023-04-17T10:05:47.922Z,49.21
2023-04-17T10:08:14.375Z,48.87
2023-04-17T10:10:40.836Z,48.39
2023-04-17T10:13:08.224Z,48.27
2023-04-17T10:15:34.704Z,48.82
2023-04-17T10:18:02.101Z,48.72
2023-04-17T10:20:28.590Z,48.98
2023-04-17T10:22:55.920Z,49.06
2023-04-17T10:25:22.364Z,49.00
2023-04-17T10:27:48.854Z,48.91
2023-04-17T10:30:15.515Z,49.04
2023-04-17T10:32:42.009Z,48.96
2023-04-17T10:35:08.511Z,49.09
2023-04-17T10:37:35.047Z,49.37
2023-04-17T10:40:01.462Z,49.37
2023-04-17T10:42:27.924Z,49.06
2023-04-17T10:44:54.456Z,48.85
2023-04-17T10:47:20.946Z,49.17
2023-04-17T10:49:47.467Z,49.15
2023-04-17T10:52:14.845Z,49.35
2023-04-17T10:54:41.266Z,49.01
2023-04-17T10:57:07.753Z,49.24
2023-04-17T10:59:34.167Z,48.96
2023-04-17T11:02:01.245Z,49.21
2023-04-17T11:04:28.936Z,49.30
2023-04-17T11:06:55.475Z,48.89
2023-04-17T11:09:21.920Z,48.89
2023-04-17T11:11:49.209Z,49.24
2023-04-17T11:14:15.629Z,49.05
2023-04-17T11:16:42.099Z,49.16
2023-04-17T11:19:09.516Z,49.27
2023-04-17T11:21:36.009Z,49.48
2023-04-17T11:24:02.494Z,49.16
2023-04-17T11:26:29.848Z,49.45
2023-04-17T11:28:56.277Z,49.49
2023-04-17T11:31:23.673Z,49.18
2023-04-17T11:33:51.126Z,49.27
2023-04-17T11:36:17.612Z,49.11
2023-04-17T11:38:45.009Z,48.91
2023-04-17T11:41:11.585Z,49.09
2023-04-17T11:43:38.853Z,49.01
2023-04-17T11:46:06.215Z,48.68
2023-04-17T11:48:33.507Z,48.50
2023-04-17T11:51:00.181Z,48.33
2023-04-17T11:53:27.452Z,48.41
2023-04-17T11:55:54.700Z,48.43
2023-04-17T11:58:21.932Z,48.17
2023-04-17T12:00:49.180Z,48.10
2023-04-17T12:03:15.740Z,48.38
2023-04-17T12:05:42.281Z,48.02
2023-04-17T12:08:08.803Z,48.30
2023-04-17T12:10:37.113Z,48.14
2023-04-17T12:13:03.539Z,48.33
2023-04-17T12:15:30.954Z,48.31
2023-04-17T12:17:57.416Z,48.00
2023-04-17T12:20:26.059Z,47.98
2023-04-17T12:22:53.974Z,48.01
2023-04-17T12:25:20.390Z,48.22
2023-04-17T12:27:49.288Z,48.12
2023-04-17T12:30:16.727Z,48.32
2023-04-17T12:32:43.583Z,48.32
2023-04-17T12:35:10.905Z,48.23
2023-04-17T12:37:37.323Z,48.16
2023-04-17T12:40:03.830Z,47.95
2023-04-17T12:42:33.698Z,48.09
2023-04-17T12:45:05.881Z,48.26
2023-04-17T12:47:32.406Z,48.15
2023-04-17T12:49:58.926Z,48.15
2023-04-17T12:52:25.411Z,48.31
2023-04-17T12:54:51.835Z,48.06
2023-04-17T12:57:19.101Z,48.37
2023-04-17T12:59:47.366Z,48.12
2023-04-17T13:02:15.800Z,48.38
2023-04-17T13:04:42.420Z,48.32
2023-04-17T13:07:09.693Z,48.09
2023-04-17T13:09:38.006Z,48.05
2023-04-17T13:12:05.479Z,48.10
2023-04-17T13:14:33.800Z,48.39
2023-04-17T13:17:02.172Z,48.02
2023-04-17T13:19:29.567Z,48.28
2023-04-17T13:21:58.894Z,48.24
2023-04-17T13:24:27.208Z,48.00
2023-04-17T13:26:53.632Z,48.05
2023-04-17T13:29:20.164Z,48.43
2023-04-17T13:31:47.679Z,48.02
2023-04-17T13:34:14.204Z,48.37
2023-04-17T13:36:41.460Z,48.38
2023-04-17T13:39:09.960Z,48.17
2023-04-17T13:41:39.217Z,48.17
2023-04-17T13:44:05.695Z,48.45
2023-04-17T13:46:32.968Z,48.14
2023-04-17T13:49:01.366Z,48.24
2023-04-17T13:51:27.770Z,47.99
2023-04-17T13:53:54.997Z,48.27
2023-04-17T13:56:21.402Z,48.12
2023-04-17T13:58:48.661Z,48.10
2023-04-17T14:01:15.933Z,48.08
2023-04-17T14:03:45.387Z,48.17
2023-04-17T14:06:14.459Z,48.13
2023-04-17T14:08:44.068Z,47.79
2023-04-17T14:11:12.639Z,48.04
2023-04-17T14:13:39.934Z,48.14
2023-04-17T14:16:06.527Z,47.79
2023-04-17T14:18:33.836Z,47.86
2023-04-17T14:21:01.101Z,48.09
2023-04-17T14:23:28.445Z,47.62
2023-04-17T14:25:54.863Z,47.64
2023-04-17T14:28:23.139Z,47.91
2023-04-17T14:30:49.689Z,47.90
2023-04-17T14:33:16.155Z,47.74
2023-04-17T14:35:43.522Z,47.68
2023-04-17T14:38:09.965Z,47.88
2023-04-17T14:40:37.303Z,47.60
2023-04-17T14:43:03.773Z,47.83
2023-04-17T14:45:30.188Z,47.74
2023-04-17T14:47:57.494Z,47.88
2023-04-17T14:50:24.902Z,47.64
2023-04-17T14:52:51.323Z,47.75
2023-04-17T14:55:18.758Z,47.89
2023-04-17T14:57:46.139Z,47.90
2023-04-17T15:00:12.568Z,47.62
2023-04-17T15:02:39.404Z,47.96
2023-04-17T15:05:06.869Z,47.99
2023-04-17T15:07:34.190Z,47.78
2023-04-17T15:10:01.476Z,47.91
2023-04-17T15:12:28.727Z,47.54
2023-04-17T15:14:55.152Z,48.06
2023-04-17T15:17:21.593Z,47.60
2023-04-17T15:19:48.845Z,47.77
2023-04-17T15:22:15.328Z,47.63
2023-04-17T15:24:42.621Z,48.05
2023-04-17T15:27:11.833Z,47.89
2023-04-17T15:29:38.289Z,47.61
2023-04-17T15:32:06.708Z,47.55
2023-04-17T15:34:33.175Z,47.65
2023-04-17T15:37:00.426Z,47.76
2023-04-17T15:39:26.876Z,47.82
2023-04-17T15:41:55.202Z,47.67
2023-04-17T15:44:21.681Z,47.41
2023-04-17T15:46:48.126Z,47.75
2023-04-17T15:49:14.613Z,47.40
2023-04-17T15:51:41.653Z,47.54
2023-04-17T15:54:10.103Z,47.49
2023-04-17T15:56:36.561Z,47.51
2023-04-17T15:59:04.846Z,47.24
2023-04-17T16:01:31.306Z,47.44
2023-04-17T16:03:57.875Z,47.40
2023-04-17T16:06:24.726Z,47.14
2023-04-17T16:08:51.190Z,47.37
2023-04-17T16:11:17.715Z,47.41
2023-04-17T16:13:44.136Z,47.18
2023-04-17T16:16:12.438Z,47.26
2023-04-17T16:18:41.666Z,47.63
2023-04-17T16:21:09.947Z,47.46
2023-04-17T16:23:36.597Z,47.53
2023-04-17T16:26:03.080Z,47.56
2023-04-17T16:28:29.541Z,47.29
2023-04-17T16:30:56.003Z,47.17
2023-04-17T16:33:22.469Z,47.45
2023-04-17T16:35:48.942Z,47.22
2023-04-17T16:38:17.214Z,47.44
2023-04-17T16:40:46.442Z,47.45
2023-04-17T16:43:13.670Z,47.49
2023-04-17T16:45:40.917Z,47.21
2023-04-17T16:48:07.425Z,47.43
2023-04-17T16:50:33.896Z,47.40
2023-04-17T16:53:02.328Z,47.09
2023-04-17T16:55:30.624Z,47.10
2023-04-17T16:57:59.803Z,47.02
2023-04-17T17:00:29.005Z,46.90
2023-04-17T17:02:55.615Z,47.18
2023-04-17T17:05:24.842Z,46.96
2023-04-17T17:07:54.004Z,47.18
2023-04-17T17:10:20.518Z,46.99
2023-04-17T17:12:46.930Z,47.03
2023-04-17T17:15:13.379Z,47.11
2023-04-17T17:17:39.927Z,47.15
2023-04-17T17:20:08.252Z,46.99
2023-04-17T17:22:34.756Z,46.79
2023-04-17T17:25:01.183Z,46.85
2023-04-17T17:27:28.438Z,46.71
2023-04-17T17:29:59.083Z,47.24
2023-04-17T17:32:28.763Z,46.88
2023-04-17T17:34:56.055Z,46.79
2023-04-17T17:37:23.271Z,47.03
2023-04-17T17:39:49.753Z,46.71
2023-04-17T17:42:16.216Z,46.88
2023-04-17T17:44:42.745Z,47.17
2023-04-17T17:47:09.209Z,46.95
2023-04-17T17:49:35.613Z,47.05
2023-04-17T17:52:02.060Z,47.01
2023-04-17T17:54:30.347Z,47.03
2023-04-17T17:56:56.830Z,47.00
2023-04-17T17:59:23.227Z,47.07
2023-04-17T18:01:49.971Z,47.34
2023-04-17T18:04:18.698Z,47.35
2023-04-17T18:06:46.513Z,47.44
2023-04-17T18:09:14.765Z,47.13
2023-04-17T18:11:43.927Z,47.47
2023-04-17T18:14:10.514Z,47.31
2023-04-17T18:16:37.190Z,47.14
2023-04-17T18:19:03.751Z,47.57
2023-04-17T18:21:30.181Z,47.38
2023-04-17T18:23:59.298Z,47.11
2023-04-17T18:26:26.119Z,47.50
2023-04-17T18:28:55.242Z,47.17
2023-04-17T18:31:21.919Z,47.35
2023-04-17T18:33:48.398Z,47.57
2023-04-17T18:36:14.880Z,47.56
2023-04-17T18:38:43.108Z,47.38
2023-04-17T18:41:09.531Z,47.38
2023-04-17T18:43:37.921Z,47.52
2023-04-17T18:46:07.174Z,47.20
2023-04-17T18:48:36.414Z,47.45
2023-04-17T18:51:02.829Z,47.16
2023-04-17T18:53:29.305Z,47.46
2023-04-17T18:55:55.740Z,47.25
2023-04-17T18:58:24.890Z,47.54
2023-04-17T19:00:51.342Z,47.30
2023-04-17T19:03:20.521Z,47.25
2023-04-17T19:05:47.915Z,47.47
2023-04-17T19:08:14.399Z,47.45
2023-04-17T19:10:42.636Z,47.30
2023-04-17T19:13:09.058Z,47.24
2023-04-17T19:15:35.466Z,47.29
2023-04-17T19:18:02.752Z,47.40
2023-04-17T19:20:30.035Z,47.46
2023-04-17T19:22:57.592Z,47.54
2023-04-17T19:25:23.984Z,47.30
2023-04-17T19:27:53.113Z,47.37
2023-04-17T19:30:19.487Z,47.63
2023-04-17T19:32:45.887Z,47.42
2023-04-17T19:35:12.440Z,47.38
2023-04-17T19:37:39.694Z,47.32
2023-04-17T19:40:14.157Z,47.61
2023-04-17T19:42:48.281Z,47.74
2023-04-17T19:45:17.461Z,47.64
2023-04-17T19:47:46.607Z,47.38
2023-04-17T19:50:15.738Z,47.66
2023-04-17T19:52:42.130Z,47.33
2023-04-17T19:55:09.490Z,47.78
2023-04-17T19:57:35.876Z,47.59
2023-04-17T20:00:03.100Z,47.52
2023-04-17T20:02:32.415Z,47.41
2023-04-17T20:05:00.734Z,47.24
2023-04-17T20:07:27.976Z,47.42
2023-04-17T20:09:54.394Z,47.50
2023-04-17T20:12:20.863Z,47.44
2023-04-17T20:14:51.661Z,47.26
2023-04-17T20:17:21.138Z,47.79
2023-04-17T20:19:47.756Z,47.29
2023-04-17T20:22:14.069Z,47.69
2023-04-17T20:24:43.266Z,47.25
2023-04-17T20:27:09.689Z,47.20
2023-04-17T20:29:36.120Z,47.38
2023-04-17T20:32:04.168Z,47.38
2023-04-17T20:34:31.541Z,47.52
2023-04-17T20:36:58.994Z,47.55
2023-04-17T20:39:25.639Z,47.38
2023-04-17T20:41:53.194Z,47.57
2023-04-17T20:44:22.674Z,47.40
2023-04-17T20:46:49.147Z,47.24
2023-04-17T20:49:17.544Z,47.63
2023-04-17T20:51:45.829Z,47.36
2023-04-17T20:54:15.173Z,47.28
2023-04-17T20:56:41.695Z,47.62
2023-04-17T20:59:08.128Z,47.29
2023-04-17T21:01:34.546Z,47.58
2023-04-17T21:04:01.055Z,47.45
2023-04-17T21:06:27.528Z,47.32
2023-04-17T21:08:53.995Z,47.57
2023-04-17T21:11:20.482Z,47.61
2023-04-17T21:13:46.828Z,47.47
2023-04-17T21:16:13.342Z,47.83
2023-04-17T21:18:39.777Z,47.60
2023-04-17T21:21:06.239Z,47.57
2023-04-17T21:23:32.647Z,47.39
2023-04-17T21:25:59.079Z,47.65
2023-04-17T21:28:25.488Z,47.53
2023-04-17T21:30:51.960Z,47.50
2023-04-17T21:33:21.173Z,47.40
2023-04-17T21:35:47.592Z,47.44
2023-04-17T21:38:14.010Z,47.63
2023-04-17T21:40:50.581Z,47.41
2023-04-17T21:43:17.905Z,47.42
2023-04-17T21:45:44.283Z,47.67
2023-04-17T21:48:13.462Z,47.60
2023-04-17T21:50:39.885Z,47.57
2023-04-17T21:53:06.310Z,47.67
2023-04-17T21:55:32.806Z,47.57
2023-04-17T21:57:59.233Z,47.41
2023-04-17T22:00:25.645Z,47.46
2023-04-17T22:02:54.057Z,47.38
2023-04-17T22:05:21.423Z,47.71
2023-04-17T22:07:54.749Z,47.39
2023-04-17T22:10:21.665Z,47.38
2023-04-17T22:12:48.902Z,47.68
2023-04-17T22:15:18.071Z,47.57
2023-04-17T22:17:44.569Z,47.25
2023-04-17T22:20:11.006Z,47.63
2023-04-17T22:22:39.282Z,47.68
2023-04-17T22:25:05.697Z,47.74
2023-04-17T22:27:32.123Z,47.35
2023-04-17T22:29:58.545Z,47.30
2023-04-17T22:32:25.005Z,47.36
2023-04-17T22:34:53.345Z,47.42
2023-04-17T22:37:19.792Z,47.50
2023-04-17T22:39:46.201Z,47.47
2023-04-17T22:42:12.602Z,47.41
2023-04-17T22:44:38.953Z,47.47
2023-04-17T22:47:06.252Z,47.61
2023-04-17T22:49:33.485Z,47.43
2023-04-17T22:51:59.893Z,47.49
2023-04-17T22:54:26.414Z,47.53
2023-04-17T22:56:52.896Z,47.40
2023-04-17T22:59:19.385Z,47.68
2023-04-17T23:01:47.649Z,47.43
2023-04-17T23:04:16.866Z,47.69
2023-04-17T23:06:45.138Z,47.47
2023-04-17T23:09:11.558Z,47.66
2023-04-17T23:11:37.895Z,47.75
2023-04-17T23:14:04.314Z,47.76
2023-04-17T23:16:31.609Z,47.48
2023-04-17T23:18:58.094Z,47.50
2023-04-17T23:21:24.453Z,47.73
2023-04-17T23:23:50.802Z,47.48
2023-04-17T23:26:18.082Z,47.69
2023-04-17T23:28:45.309Z,47.48
2023-04-17T23:31:14.445Z,47.62
2023-04-17T23:33:41.683Z,47.52
2023-04-17T23:36:08.051Z,47.78
2023-04-17T23:38:37.217Z,47.73
2023-04-17T23:41:03.590Z,47.74
2023-04-17T23:43:30.044Z,47.67
2023-04-17T23:45:59.190Z,47.51
2023-04-17T23:48:25.585Z,47.60
2023-04-17T23:50:51.967Z,47.82
2023-04-17T23:53:18.339Z,47.63
2023-04-17T23:55:44.731Z,47.72
2023-04-17T23:58:11.937Z,47.78
